Time;durP1;ratioP1;P1;durP2;ratioP2;P2;SDS_P1;SDS_P2;PMS_P1;PMS_P2;Temp;Humidity;BMP_temperature;BMP_pressure;BME280_temperature;BME280_humidity;BME280_pressure;Samples;Min_cycle;Max_cycle;Signal;HPM_P1;HPM_P2
2022/06/18 00:00:55;;;;;;;8.82;3.70;;;23.60;80.60;;;;;;5070032;28;25058;-65
2022/06/18 00:03:22;;;;;;;6.15;3.30;;;23.50;79.90;;;;;;5058295;28;25053;-66
2022/06/18 00:05:50;;;;;;;4.82;3.15;;;23.60;79.00;;;;;;5061312;28;25057;-65
2022/06/18 00:08:21;;;;;;;7.18;3.58;;;23.60;78.90;;;;;;5065068;28;25104;-66
2022/06/18 00:10:54;;;;;;;6.97;3.67;;;23.70;78.90;;;;;;5060836;28;25060;-66
2022/06/18 00:13:41;;;;;;;5.75;3.70;;;23.60;80.20;;;;;;5072028;28;25104;-64
2022/06/18 00:16:12;;;;;;;9.55;4.35;;;23.60;80.40;;;;;;5061208;28;25058;-65
2022/06/18 00:18:37;;;;;;;7.38;3.63;;;23.50;82.00;;;;;;5069488;28;25051;-64
2022/06/18 00:21:05;;;;;;;6.57;3.50;;;23.50;83.80;;;;;;5071249;28;25136;-63
2022/06/18 00:23:31;;;;;;;5.85;3.67;;;23.30;83.20;;;;;;5067364;28;25129;-65
2022/06/18 00:25:57;;;;;;;11.88;3.65;;;23.40;83.50;;;;;;5067659;28;25075;-66
2022/06/18 00:28:30;;;;;;;15.75;3.85;;;23.40;82.40;;;;;;5072622;28;25135;-65
2022/06/18 00:30:55;;;;;;;8.38;4.07;;;23.40;83.20;;;;;;5063309;28;25157;-65
2022/06/18 00:33:22;;;;;;;5.97;3.33;;;23.40;83.60;;;;;;5060646;28;25052;-64
2022/06/18 00:35:49;;;;;;;9.73;3.85;;;23.30;84.20;;;;;;5058634;28;25136;-65
2022/06/18 00:38:31;;;;;;;10.45;3.78;;;23.40;84.60;;;;;;5069730;28;25069;-64
2022/06/18 00:40:58;;;;;;;10.60;3.63;;;23.50;84.60;;;;;;5066771;28;25136;-66
2022/06/18 00:43:32;;;;;;;8.70;4.55;;;23.40;84.60;;;;;;5060769;28;25080;-65
2022/06/18 00:46:29;;;;;;;10.48;3.97;;;23.20;86.20;;;;;;5067295;28;25162;-63
2022/06/18 00:49:02;;;;;;;6.68;3.45;;;23.30;86.20;;;;;;5070491;28;25059;-64
2022/06/18 00:51:38;;;;;;;10.13;3.65;;;23.40;85.90;;;;;;5061982;28;25080;-65
2022/06/18 00:54:16;;;;;;;9.20;3.58;;;23.30;87.80;;;;;;5059395;28;25149;-64
2022/06/18 00:56:49;;;;;;;9.52;4.20;;;23.40;88.80;;;;;;5063545;28;25060;-64
2022/06/18 00:59:26;;;;;;;5.30;3.88;;;23.40;89.00;;;;;;5063096;28;25072;-65
2022/06/18 01:01:54;;;;;;;6.43;3.58;;;23.30;89.70;;;;;;5056598;28;25134;-65
2022/06/18 01:04:22;;;;;;;8.18;3.83;;;23.20;91.60;;;;;;5055395;28;25058;-64
2022/06/18 01:06:48;;;;;;;7.93;4.20;;;23.00;93.70;;;;;;5064919;28;25072;-65
2022/06/18 01:09:17;;;;;;;6.18;4.13;;;23.00;93.20;;;;;;5055120;28;25090;-64
2022/06/18 01:11:45;;;;;;;14.90;4.20;;;23.00;94.30;;;;;;5064998;28;25077;-67
2022/06/18 01:14:15;;;;;;;9.02;4.07;;;23.00;94.30;;;;;;5063513;28;25053;-64
2022/06/18 01:16:40;;;;;;;9.43;4.40;;;22.90;94.90;;;;;;5062300;28;25131;-64
2022/06/18 01:19:15;;;;;;;11.68;4.25;;;22.90;95.50;;;;;;5063237;28;25069;-64
2022/06/18 01:21:43;;;;;;;8.27;4.30;;;22.90;96.20;;;;;;5058501;28;25075;-64
2022/06/18 01:24:23;;;;;;;9.48;4.32;;;22.80;96.80;;;;;;5063173;28;25067;-65
2022/06/18 01:26:52;;;;;;;9.73;4.53;;;22.80;97.70;;;;;;5067025;28;25091;-64
2022/06/18 01:29:18;;;;;;;7.80;3.97;;;22.80;97.00;;;;;;5046590;28;25153;-65
2022/06/18 01:31:46;;;;;;;10.38;4.93;;;22.70;98.00;;;;;;5058308;28;25046;-64
2022/06/18 01:34:14;;;;;;;7.10;4.40;;;22.60;99.50;;;;;;5062971;28;25056;-65
2022/06/18 01:36:39;;;;;;;10.60;4.38;;;22.60;99.80;;;;;;5062854;28;25063;-64
2022/06/18 01:39:12;;;;;;;9.60;4.70;;;22.50;99.90;;;;;;5063391;28;25057;-65
2022/06/18 01:41:56;;;;;;;11.63;4.30;;;22.60;99.90;;;;;;5074198;28;25082;-65
2022/06/18 01:44:29;;;;;;;6.68;4.85;;;22.60;99.90;;;;;;5068722;28;25072;-65
2022/06/18 01:47:06;;;;;;;11.13;4.70;;;22.70;99.90;;;;;;5077192;28;25100;-65
2022/06/18 01:49:43;;;;;;;12.73;4.70;;;22.60;99.90;;;;;;5072560;28;25173;-64
2022/06/18 01:52:10;;;;;;;9.75;5.13;;;22.60;99.90;;;;;;5063422;28;25155;-64
2022/06/18 01:54:45;;;;;;;8.43;5.50;;;22.50;99.90;;;;;;5070283;28;25114;-64
2022/06/18 01:57:31;;;;;;;7.75;5.40;;;22.50;99.90;;;;;;5053146;28;25061;-64
2022/06/18 02:00:04;;;;;;;12.75;5.30;;;22.30;99.90;;;;;;5066679;28;25109;-65
2022/06/18 02:02:29;;;;;;;12.32;5.53;;;22.20;99.90;;;;;;5067785;28;25075;-65
2022/06/18 02:04:55;;;;;;;10.13;4.88;;;22.20;99.90;;;;;;5064639;28;25089;-64
2022/06/18 02:07:21;;;;;;;8.90;5.20;;;22.20;99.90;;;;;;5068992;28;25053;-65
2022/06/18 02:09:58;;;;;;;11.93;4.68;;;22.20;99.90;;;;;;5063634;28;25074;-65
2022/06/18 02:12:28;;;;;;;14.75;4.60;;;22.20;99.90;;;;;;5056302;28;25061;-67
2022/06/18 02:14:58;;;;;;;8.40;4.75;;;22.30;99.90;;;;;;5062957;28;25134;-64
2022/06/18 02:17:27;;;;;;;16.25;5.70;;;22.20;99.90;;;;;;5064424;28;25149;-65
2022/06/18 02:20:00;;;;;;;14.23;5.40;;;22.20;99.90;;;;;;5064085;28;25161;-64
2022/06/18 02:22:33;;;;;;;17.10;5.13;;;22.10;99.90;;;;;;5069566;28;25056;-65
2022/06/18 02:24:59;;;;;;;8.30;4.78;;;22.20;99.90;;;;;;5059617;28;25070;-65
2022/06/18 02:27:25;;;;;;;14.40;5.18;;;22.20;99.90;;;;;;5068093;28;25145;-66
2022/06/18 02:29:52;;;;;;;10.35;5.00;;;22.10;99.90;;;;;;5056944;28;25147;-65
2022/06/18 02:32:41;;;;;;;12.32;4.53;;;22.00;99.90;;;;;;5070554;28;25046;-65
2022/06/18 02:35:16;;;;;;;12.55;5.03;;;22.00;99.90;;;;;;5057417;28;24875;-64
2022/06/18 02:37:42;;;;;;;10.18;4.70;;;22.00;99.90;;;;;;5060322;28;25092;-65
2022/06/18 02:40:20;;;;;;;13.43;5.13;;;22.00;99.90;;;;;;5070228;28;25171;-64
2022/06/18 02:42:48;;;;;;;13.43;4.85;;;22.00;99.90;;;;;;5063495;28;25140;-63
2022/06/18 02:45:15;;;;;;;11.55;4.65;;;22.00;99.90;;;;;;5062550;28;25053;-64
2022/06/18 02:47:41;;;;;;;9.85;5.00;;;21.90;99.90;;;;;;5066004;28;25083;-64
2022/06/18 02:50:14;;;;;;;8.90;4.50;;;21.80;99.90;;;;;;5066788;28;25087;-64
2022/06/18 02:52:43;;;;;;;8.90;5.05;;;21.80;99.90;;;;;;5060440;28;25118;-64
2022/06/18 02:55:09;;;;;;;14.90;5.57;;;21.70;99.90;;;;;;5060115;28;25065;-64
2022/06/18 02:57:35;;;;;;;12.98;5.10;;;21.80;99.90;;;;;;5062156;28;25144;-64
2022/06/18 03:00:01;;;;;;;9.73;5.47;;;21.80;99.90;;;;;;5069742;28;25135;-65
2022/06/18 03:02:26;;;;;;;15.85;6.03;;;21.80;99.90;;;;;;5065467;28;25088;-67
2022/06/18 03:04:52;;;;;;;9.23;5.25;;;21.80;99.90;;;;;;5059946;28;25066;-65
2022/06/18 03:07:19;;;;;;;12.93;5.53;;;21.80;99.90;;;;;;5049544;28;25058;-64
2022/06/18 03:12:28;;;;;;;14.45;6.25;;;21.60;99.90;;;;;;5057479;28;25101;-65
2022/06/18 03:14:54;;;;;;;12.70;6.45;;;21.60;99.90;;;;;;5061872;28;25162;-64
2022/06/18 03:17:19;;;;;;;15.45;5.93;;;21.50;99.90;;;;;;5062697;28;25087;-64
2022/06/18 03:19:52;;;;;;;12.98;5.35;;;21.50;99.90;;;;;;5060358;28;25108;-64
2022/06/18 03:22:20;;;;;;;11.40;5.35;;;21.60;99.90;;;;;;5066275;28;25088;-66
2022/06/18 03:24:46;;;;;;;17.13;5.18;;;21.70;99.90;;;;;;5068668;28;25068;-65
2022/06/18 03:27:14;;;;;;;14.70;5.93;;;21.70;99.90;;;;;;5071782;28;25183;-65
2022/06/18 03:29:40;;;;;;;13.05;5.47;;;21.70;99.90;;;;;;5066443;28;25052;-64
2022/06/18 03:32:06;;;;;;;17.73;5.88;;;21.70;99.90;;;;;;5056690;28;25161;-64
2022/06/18 03:34:31;;;;;;;11.63;5.88;;;21.70;99.90;;;;;;5054215;28;25057;-64
2022/06/18 03:36:57;;;;;;;14.45;6.03;;;21.50;99.90;;;;;;5061650;28;25053;-64
2022/06/18 03:39:24;;;;;;;16.40;5.38;;;21.40;99.90;;;;;;5062191;28;25075;-63
2022/06/18 03:41:49;;;;;;;13.15;5.95;;;21.40;99.90;;;;;;5059264;28;25066;-65
2022/06/18 03:44:15;;;;;;;20.23;6.13;;;21.50;99.90;;;;;;5040574;28;25067;-64
2022/06/18 03:46:43;;;;;;;17.80;6.75;;;21.40;99.90;;;;;;5056967;28;25132;-64
2022/06/18 03:49:11;;;;;;;12.00;5.80;;;21.40;99.90;;;;;;5061211;28;25057;-63
2022/06/18 03:51:37;;;;;;;17.17;5.55;;;21.40;99.90;;;;;;5061839;28;25085;-63
2022/06/18 03:54:03;;;;;;;10.05;5.88;;;21.40;99.90;;;;;;5063671;28;25102;-65
2022/06/18 03:56:31;;;;;;;18.75;6.45;;;21.40;99.90;;;;;;5032791;28;25052;-65
2022/06/18 03:58:57;;;;;;;14.65;6.15;;;21.30;99.90;;;;;;5061375;28;25106;-64
2022/06/18 04:01:31;;;;;;;11.43;6.20;;;21.30;99.90;;;;;;5060287;28;24859;-63
2022/06/18 04:03:57;;;;;;;14.68;6.03;;;21.30;99.90;;;;;;5041710;28;25059;-65
2022/06/18 04:06:23;;;;;;;13.63;6.60;;;21.10;99.90;;;;;;5065230;28;25128;-65
2022/06/18 04:08:49;;;;;;;11.27;6.05;;;21.10;99.90;;;;;;5073611;28;25104;-64
2022/06/18 04:11:15;;;;;;;18.00;6.60;;;21.10;99.90;;;;;;5070275;28;25063;-66
2022/06/18 04:13:41;;;;;;;13.85;6.43;;;21.10;99.90;;;;;;5066318;28;25097;-64
2022/06/18 04:16:07;;;;;;;11.93;6.35;;;21.10;99.90;;;;;;5068692;28;25130;-66
2022/06/18 04:18:33;;;;;;;16.38;6.55;;;21.20;99.90;;;;;;5081079;28;25097;-64
2022/06/18 04:21:00;;;;;;;16.50;6.93;;;21.20;99.90;;;;;;5077050;28;25165;-65
2022/06/18 04:23:26;;;;;;;12.13;6.75;;;21.20;99.90;;;;;;5064705;28;25086;-66
2022/06/18 04:25:51;;;;;;;19.10;7.50;;;21.30;99.90;;;;;;5065157;28;25044;-65
2022/06/18 04:28:18;;;;;;;23.05;7.15;;;21.20;99.90;;;;;;5070126;28;25065;-63
2022/06/18 04:30:44;;;;;;;18.20;6.45;;;21.20;99.90;;;;;;5057331;28;25104;-64
2022/06/18 04:33:11;;;;;;;13.00;6.45;;;21.20;99.90;;;;;;5061421;28;25162;-65
2022/06/18 04:35:37;;;;;;;23.92;7.15;;;21.00;99.90;;;;;;5058207;28;25057;-65
2022/06/18 04:38:03;;;;;;;15.27;7.68;;;20.90;99.90;;;;;;5062358;28;25129;-64
2022/06/18 04:40:32;;;;;;;15.40;6.25;;;21.00;99.90;;;;;;5055897;28;25062;-65
2022/06/18 04:43:03;;;;;;;23.35;7.70;;;21.10;99.90;;;;;;5043056;28;25115;-64
2022/06/18 04:45:29;;;;;;;17.75;6.45;;;21.10;99.90;;;;;;5071691;28;25053;-65
2022/06/18 04:47:56;;;;;;;17.48;6.80;;;21.20;99.90;;;;;;5063495;28;25063;-66
2022/06/18 04:50:27;;;;;;;17.48;6.38;;;21.40;99.90;;;;;;5076872;28;25070;-64
2022/06/18 04:52:53;;;;;;;26.05;8.18;;;21.40;99.90;;;;;;5072708;28;25101;-65
2022/06/18 04:55:19;;;;;;;16.00;7.00;;;21.40;99.90;;;;;;5070602;28;25084;-65
2022/06/18 04:57:44;;;;;;;11.95;6.65;;;21.40;99.90;;;;;;5065712;28;25099;-65
2022/06/18 05:00:12;;;;;;;14.15;6.38;;;21.30;99.90;;;;;;5045211;28;25149;-66
2022/06/18 05:02:38;;;;;;;19.20;7.43;;;21.30;99.90;;;;;;5060448;28;25071;-64
2022/06/18 05:05:06;;;;;;;19.55;6.80;;;21.30;99.90;;;;;;5057194;28;25085;-65
2022/06/18 05:07:32;;;;;;;14.77;7.05;;;21.20;99.90;;;;;;5060598;28;25128;-65
2022/06/18 05:09:57;;;;;;;17.52;7.10;;;21.10;99.90;;;;;;5060466;28;25147;-66
2022/06/18 05:12:23;;;;;;;19.35;7.15;;;21.20;99.90;;;;;;5061459;28;25145;-64
2022/06/18 05:14:49;;;;;;;22.60;7.82;;;21.20;99.90;;;;;;5040311;28;25121;-65
2022/06/18 05:17:24;;;;;;;19.35;7.32;;;21.20;99.90;;;;;;5057662;28;25087;-63
2022/06/18 05:19:50;;;;;;;23.05;7.13;;;21.30;99.90;;;;;;5054870;28;25104;-63
2022/06/18 05:22:16;;;;;;;19.17;7.43;;;21.40;99.90;;;;;;5058235;28;25098;-64
2022/06/18 05:24:41;;;;;;;19.70;7.18;;;21.40;99.90;;;;;;5062697;28;25071;-66
2022/06/18 05:27:17;;;;;;;20.55;7.65;;;21.40;99.90;;;;;;5067815;28;25089;-64
2022/06/18 05:29:42;;;;;;;21.38;7.15;;;21.30;99.90;;;;;;5038468;28;25067;-64
2022/06/18 05:32:08;;;;;;;17.42;7.78;;;21.50;99.90;;;;;;5059905;28;25065;-63
2022/06/18 05:34:33;;;;;;;23.42;7.45;;;21.50;99.90;;;;;;5059053;28;25054;-65
2022/06/18 05:36:59;;;;;;;20.52;7.35;;;21.50;99.90;;;;;;5061749;28;25062;-66
2022/06/18 05:39:24;;;;;;;19.30;7.30;;;21.60;99.90;;;;;;5062614;28;25110;-66
2022/06/18 05:41:50;;;;;;;26.65;7.60;;;21.70;99.90;;;;;;5077096;28;25112;-65
2022/06/18 05:44:15;;;;;;;23.65;7.47;;;21.80;99.90;;;;;;5069425;28;25067;-65
2022/06/18 05:46:41;;;;;;;17.55;7.55;;;21.90;99.90;;;;;;5046710;28;25061;-63
2022/06/18 05:49:07;;;;;;;18.95;8.35;;;22.00;99.90;;;;;;5054888;28;25058;-65
2022/06/18 05:51:33;;;;;;;17.40;7.78;;;22.00;99.90;;;;;;5053019;28;25057;-66
2022/06/18 05:53:58;;;;;;;22.52;7.60;;;22.00;99.90;;;;;;5057200;28;25121;-65
2022/06/18 05:56:24;;;;;;;17.95;7.78;;;22.00;99.90;;;;;;5048819;28;25070;-66
2022/06/18 05:58:49;;;;;;;18.58;8.00;;;21.80;99.90;;;;;;5070661;28;25087;-64
2022/06/18 06:01:15;;;;;;;20.95;7.63;;;21.80;99.90;;;;;;5064837;28;25067;-64
2022/06/18 06:03:40;;;;;;;20.38;7.63;;;21.90;99.90;;;;;;5055698;28;25085;-65
2022/06/18 06:06:06;;;;;;;21.95;8.57;;;22.00;99.90;;;;;;5051920;28;25072;-64
2022/06/18 06:08:32;;;;;;;21.35;7.97;;;22.00;99.90;;;;;;5057131;28;25059;-65
2022/06/18 06:13:41;;;;;;;24.77;8.43;;;22.10;99.90;;;;;;5054874;28;25060;-65
2022/06/18 06:16:08;;;;;;;25.13;8.63;;;22.30;99.90;;;;;;5056643;28;25074;-66
2022/06/18 06:18:34;;;;;;;18.80;8.15;;;22.40;99.90;;;;;;5056787;28;25080;-65
2022/06/18 06:21:01;;;;;;;24.13;9.23;;;22.50;99.90;;;;;;5053816;28;26183;-65
2022/06/18 06:23:27;;;;;;;23.13;8.43;;;22.40;99.90;;;;;;5054792;28;25043;-65
2022/06/18 06:25:53;;;;;;;20.75;8.98;;;22.50;99.90;;;;;;5046384;28;25063;-67
2022/06/18 06:28:22;;;;;;;21.88;8.57;;;22.60;99.90;;;;;;5062926;28;25059;-66
2022/06/18 06:30:48;;;;;;;20.25;9.07;;;22.90;99.90;;;;;;5061231;28;25087;-65
2022/06/18 06:33:14;;;;;;;20.80;9.20;;;22.90;99.90;;;;;;5055506;28;25143;-66
2022/06/18 06:35:39;;;;;;;21.98;9.30;;;22.80;99.90;;;;;;5064009;28;25068;-66
2022/06/18 06:38:05;;;;;;;21.88;9.43;;;23.00;99.90;;;;;;5058752;28;25074;-64
2022/06/18 06:40:32;;;;;;;17.52;8.63;;;23.20;99.90;;;;;;5056592;28;25076;-65
2022/06/18 06:42:58;;;;;;;23.38;9.45;;;23.50;99.90;;;;;;5060841;28;25076;-67
2022/06/18 06:45:30;;;;;;;29.13;9.00;;;23.70;99.90;;;;;;5056119;28;25062;-63
2022/06/18 06:47:56;;;;;;;;;;;23.60;99.90;;;;;;5063759;28;25123;-64
2022/06/18 06:50:23;;;;;;;25.15;9.35;;;23.60;99.90;;;;;;5058956;28;24108;-64
2022/06/18 06:52:49;;;;;;;26.30;9.93;;;23.50;99.90;;;;;;5059694;28;25164;-66
2022/06/18 06:58:05;;;;;;;15.85;7.50;;;23.90;99.90;;;;;;5058739;28;25059;-64
2022/06/18 07:00:38;;;;;;;25.42;10.10;;;24.30;99.90;;;;;;5056861;28;25080;-63
2022/06/18 07:03:04;;;;;;;18.85;8.98;;;24.00;99.90;;;;;;5060342;28;25106;-64
2022/06/18 07:05:30;;;;;;;20.95;10.13;;;23.50;99.90;;;;;;5043606;28;25069;-64
2022/06/18 07:07:55;;;;;;;25.67;12.48;;;23.50;99.90;;;;;;5066657;28;25084;-65
2022/06/18 07:10:21;;;;;;;24.45;11.15;;;23.60;99.90;;;;;;5072708;28;25069;-64
2022/06/18 07:12:47;;;;;;;22.95;9.60;;;23.70;99.90;;;;;;5063260;28;25090;-64
2022/06/18 07:15:13;;;;;;;24.25;10.90;;;23.50;99.90;;;;;;5064214;28;25176;-62
2022/06/18 07:17:40;;;;;;;24.85;9.48;;;23.50;99.90;;;;;;5043151;28;25059;-64
2022/06/18 07:20:09;;;;;;;21.15;10.00;;;23.70;99.90;;;;;;5060334;28;25079;-65
2022/06/18 07:22:35;;;;;;;19.15;8.35;;;24.20;99.90;;;;;;5058850;28;25081;-63
2022/06/18 07:25:01;;;;;;;24.25;7.90;;;24.70;99.90;;;;;;5060866;28;25102;-63
2022/06/18 07:27:29;;;;;;;25.20;8.60;;;24.50;99.90;;;;;;5061191;28;25075;-65
2022/06/18 07:29:55;;;;;;;30.75;8.20;;;24.30;99.90;;;;;;5058710;28;25056;-66
2022/06/18 07:32:21;;;;;;;17.02;7.63;;;24.50;99.90;;;;;;5057585;28;25061;-63
2022/06/18 07:34:46;;;;;;;21.65;7.78;;;24.90;99.90;;;;;;5056387;28;25062;-67
2022/06/18 07:37:12;;;;;;;15.15;7.63;;;25.20;99.90;;;;;;5039903;28;25055;-65
2022/06/18 07:39:38;;;;;;;19.35;7.80;;;24.50;99.90;;;;;;5054154;28;25099;-64
2022/06/18 07:42:05;;;;;;;19.20;7.15;;;23.90;99.90;;;;;;5059146;28;25117;-64
2022/06/18 07:44:31;;;;;;;17.45;6.85;;;23.60;99.90;;;;;;5050522;28;25053;-63
2022/06/18 07:47:03;;;;;;;20.95;7.93;;;23.60;99.90;;;;;;5066935;28;25071;-64
2022/06/18 07:49:30;;;;;;;20.98;7.05;;;23.70;99.90;;;;;;5037506;28;25114;-66
2022/06/18 07:51:56;;;;;;;27.80;7.88;;;23.90;99.90;;;;;;5065102;28;25065;-64
2022/06/18 07:54:22;;;;;;;21.38;7.95;;;24.60;99.90;;;;;;5060499;28;25070;-63
2022/06/18 07:56:48;;;;;;;24.65;6.78;;;24.10;99.90;;;;;;5058842;28;25169;-63
2022/06/18 07:59:13;;;;;;;12.07;6.15;;;24.50;99.90;;;;;;5057370;28;25077;-65
2022/06/18 08:01:39;;;;;;;16.50;6.43;;;24.80;99.90;;;;;;5062850;28;25058;-64
2022/06/18 08:04:06;;;;;;;17.20;6.72;;;25.10;99.90;;;;;;5061421;28;25107;-65
2022/06/18 08:06:32;;;;;;;14.18;7.15;;;25.30;98.50;;;;;;5059963;28;25128;-64
2022/06/18 08:08:58;;;;;;;20.27;7.32;;;25.80;97.70;;;;;;5055854;28;25074;-64
2022/06/18 08:11:25;;;;;;;22.75;7.40;;;25.90;96.20;;;;;;5058882;28;25068;-64
2022/06/18 08:13:52;;;;;;;20.40;8.18;;;25.20;99.10;;;;;;5063218;28;25067;-63
2022/06/18 08:16:20;;;;;;;21.00;8.27;;;25.40;99.60;;;;;;5060181;28;25054;-64
2022/06/18 08:18:46;;;;;;;20.25;7.40;;;25.10;99.90;;;;;;5053170;28;25058;-64
2022/06/18 08:21:18;;;;;;;25.38;8.40;;;24.90;99.90;;;;;;5051495;28;25070;-66
2022/06/18 08:23:44;;;;;;;19.02;8.00;;;25.50;99.90;;;;;;5054112;28;25102;-64
2022/06/18 08:26:10;;;;;;;18.08;7.20;;;26.00;98.70;;;;;;5052055;28;25064;-62
2022/06/18 08:28:37;;;;;;;21.08;7.65;;;25.70;99.40;;;;;;5056083;28;25079;-66
2022/06/18 08:31:05;;;;;;;24.70;8.77;;;26.00;99.60;;;;;;5062613;28;25108;-64
2022/06/18 08:33:31;;;;;;;18.15;8.55;;;26.40;97.90;;;;;;5050635;28;25060;-62
2022/06/18 08:35:59;;;;;;;20.35;8.60;;;25.40;99.90;;;;;;5066768;28;25101;-62
2022/06/18 08:38:24;;;;;;;24.17;8.57;;;25.40;99.90;;;;;;5054496;28;25130;-63
2022/06/18 08:41:11;;;;;;;24.38;8.27;;;24.90;99.90;;;;;;5059363;28;25062;-62
2022/06/18 08:43:45;;;;;;;19.55;8.98;;;24.80;99.90;;;;;;5056596;28;25080;-62
2022/06/18 08:46:38;;;;;;;20.73;8.50;;;24.80;99.90;;;;;;5050357;28;25160;-63
2022/06/18 08:49:21;;;;;;;19.52;9.90;;;24.80;99.90;;;;;;5054709;28;25177;-62
2022/06/18 08:52:04;;;;;;;23.88;8.50;;;24.70;99.90;;;;;;5056201;28;25053;-64
2022/06/18 08:54:55;;;;;;;17.27;8.93;;;24.80;99.90;;;;;;5055374;28;25080;-63
2022/06/18 08:57:40;;;;;;;19.05;8.57;;;25.40;99.90;;;;;;5050780;28;25069;-65
2022/06/18 09:00:28;;;;;;;19.50;8.02;;;25.60;99.90;;;;;;5056625;28;25051;-64
2022/06/18 09:03:05;;;;;;;23.70;9.00;;;25.80;99.60;;;;;;5043987;28;25080;-62
2022/06/18 09:06:08;;;;;;;20.77;7.47;;;25.40;97.40;;;;;;5053981;28;25049;-62
2022/06/18 09:08:37;;;;;;;14.50;7.18;;;25.60;98.20;;;;;;5053840;28;25192;-63
2022/06/18 09:11:22;;;;;;;23.23;8.13;;;26.10;97.50;;;;;;5048956;28;25072;-63
2022/06/18 09:13:59;;;;;;;25.05;7.70;;;26.10;94.00;;;;;;5055367;28;25099;-62
2022/06/18 09:16:36;;;;;;;19.67;7.30;;;25.90;92.80;;;;;;5052746;28;25062;-63
2022/06/18 09:19:07;;;;;;;12.98;6.25;;;26.00;91.50;;;;;;5049262;28;25058;-63
2022/06/18 09:22:00;;;;;;;17.50;5.50;;;25.60;92.50;;;;;;5050563;28;25086;-64
2022/06/18 09:24:42;;;;;;;23.65;7.57;;;26.10;91.60;;;;;;5047696;28;25062;-63
2022/06/18 09:27:23;;;;;;;13.43;7.28;;;26.50;90.00;;;;;;5052747;28;25173;-63
2022/06/18 09:30:10;;;;;;;16.70;5.43;;;26.60;88.50;;;;;;5048759;28;25093;-63
2022/06/18 09:32:59;;;;;;;24.38;6.47;;;26.70;86.60;;;;;;5058850;28;25060;-62
2022/06/18 09:35:30;;;;;;;17.83;6.65;;;27.20;77.80;;;;;;5070117;28;26155;-62
2022/06/18 09:38:01;;;;;;;20.85;7.47;;;27.40;79.00;;;;;;5073914;28;25144;-62
2022/06/18 09:40:37;;;;;;;17.38;6.43;;;27.40;77.50;;;;;;5031012;28;25128;-62
2022/06/18 09:43:28;;;;;;;21.73;6.97;;;27.20;78.40;;;;;;5056610;28;25065;-62
2022/06/18 09:46:01;;;;;;;13.88;6.28;;;27.20;79.60;;;;;;5057353;28;25082;-62
2022/06/18 09:48:26;;;;;;;15.45;6.07;;;27.50;71.30;;;;;;5062470;28;25046;-63
2022/06/18 09:51:00;;;;;;;15.68;7.05;;;27.30;70.80;;;;;;5054761;28;25166;-61
2022/06/18 09:53:36;;;;;;;20.98;6.53;;;27.60;71.30;;;;;;5045526;28;25141;-63
2022/06/18 09:56:04;;;;;;;12.65;6.50;;;27.00;78.00;;;;;;5058687;28;25057;-62
2022/06/18 09:58:33;;;;;;;19.15;6.43;;;26.90;83.30;;;;;;5046510;28;25082;-62
2022/06/18 10:01:00;;;;;;;19.83;6.40;;;27.20;77.50;;;;;;5054163;28;25159;-62
2022/06/18 10:09:27;;;;;;;17.90;7.10;;;27.10;80.80;;;;;;5060681;28;25067;-62
2022/06/18 10:11:53;;;;;;;15.23;6.63;;;26.70;86.70;;;;;;5066892;28;25055;-65
2022/06/18 10:14:21;;;;;;;19.08;6.85;;;26.70;88.10;;;;;;5064395;28;25071;-63
2022/06/18 10:17:11;;;;;;;15.82;5.68;;;27.20;76.80;;;;;;5066560;28;25077;-63
2022/06/18 10:19:47;;;;;;;20.17;6.70;;;27.90;72.90;;;;;;5060845;28;25072;-62
2022/06/18 10:22:34;;;;;;;12.68;6.30;;;28.20;67.70;;;;;;5055704;28;25058;-64
2022/06/18 10:25:21;;;;;;;13.77;6.93;;;27.90;69.10;;;;;;5058373;28;25063;-62
2022/06/18 10:27:55;;;;;;;17.02;5.90;;;28.00;70.50;;;;;;5065283;28;25077;-61
2022/06/18 10:30:32;;;;;;;17.00;6.30;;;27.50;68.80;;;;;;5062126;28;25078;-62
2022/06/18 10:33:35;;;;;;;14.68;5.90;;;27.20;74.20;;;;;;5045278;28;25048;-62
2022/06/18 10:36:35;;;;;;;20.67;6.50;;;27.00;79.10;;;;;;5031623;28;25080;-62
2022/06/18 10:39:21;;;;;;;14.25;6.38;;;27.30;84.20;;;;;;5037204;28;25062;-62
2022/06/18 10:42:04;;;;;;;16.58;7.35;;;27.80;75.70;;;;;;5066298;28;25123;-63
2022/06/18 10:44:56;;;;;;;14.00;6.22;;;27.70;78.40;;;;;;5073919;28;25062;-64
2022/06/18 10:47:29;;;;;;;18.52;6.88;;;28.20;73.50;;;;;;5045236;28;25072;-63
2022/06/18 10:50:06;;;;;;;15.30;5.47;;;28.20;68.50;;;;;;5060606;28;25057;-63
2022/06/18 10:52:31;;;;;;;14.43;6.38;;;28.30;67.90;;;;;;5062769;28;25126;-61
2022/06/18 10:55:13;;;;;;;24.67;6.20;;;28.40;66.10;;;;;;5063562;28;25076;-62
2022/06/18 10:57:39;;;;;;;13.80;4.80;;;28.80;62.90;;;;;;5080345;28;25081;-62
2022/06/18 11:00:15;;;;;;;10.70;5.28;;;28.10;64.50;;;;;;5076955;28;25112;-64
2022/06/18 11:02:41;;;;;;;14.45;5.05;;;28.50;63.90;;;;;;5061990;28;25092;-61
2022/06/18 11:05:24;;;;;;;18.35;4.18;;;28.50;57.30;;;;;;5061581;28;25161;-63
2022/06/18 11:07:53;;;;;;;16.95;5.22;;;28.30;62.00;;;;;;5052708;28;25160;-64
2022/06/18 11:10:44;;;;;;;10.63;4.80;;;28.30;62.90;;;;;;5064022;28;25059;-64
2022/06/18 11:13:28;;;;;;;15.50;4.97;;;28.00;64.30;;;;;;5061219;28;25077;-63
2022/06/18 11:16:27;;;;;;;18.40;5.35;;;27.90;63.20;;;;;;5059351;28;25079;-63
2022/06/18 11:19:02;;;;;;;18.33;5.40;;;27.70;61.40;;;;;;5038018;28;25071;-64
2022/06/18 11:21:39;;;;;;;15.23;4.82;;;27.80;66.50;;;;;;5057526;28;25055;-66
2022/06/18 11:24:10;;;;;;;14.68;4.80;;;28.20;63.00;;;;;;5057870;28;25082;-66
2022/06/18 11:26:41;;;;;;;15.48;5.22;;;28.00;62.30;;;;;;5060054;28;25124;-63
2022/06/18 11:29:19;;;;;;;10.45;4.40;;;28.30;60.70;;;;;;5062686;28;25149;-62
2022/06/18 11:31:48;;;;;;;10.15;4.32;;;28.80;59.10;;;;;;5033445;28;25159;-61
2022/06/18 11:34:38;;;;;;;17.45;5.35;;;29.40;56.00;;;;;;5052262;28;25058;-61
2022/06/18 11:37:22;;;;;;;14.00;5.55;;;29.10;53.70;;;;;;5009291;28;25105;-62
2022/06/18 11:40:03;;;;;;;11.80;4.78;;;28.50;65.80;;;;;;5056286;28;25072;-63
2022/06/18 11:42:34;;;;;;;12.93;4.60;;;28.30;66.20;;;;;;5054223;28;25113;-63
2022/06/18 11:45:06;;;;;;;16.17;5.93;;;28.00;69.10;;;;;;5052058;28;25131;-64
2022/06/18 11:48:00;;;;;;;15.50;6.35;;;28.30;63.20;;;;;;5055454;28;25079;-62
2022/06/18 11:50:31;;;;;;;12.85;5.65;;;28.00;67.80;;;;;;5054597;28;25152;-64
2022/06/18 11:53:39;;;;;;;11.82;5.60;;;28.20;66.10;;;;;;5053544;28;25074;-65
2022/06/18 11:56:14;;;;;;;13.77;4.90;;;28.40;61.90;;;;;;4984055;28;25057;-66
2022/06/18 11:58:47;;;;;;;15.13;5.20;;;28.80;61.70;;;;;;4989708;28;25067;-62
2022/06/18 12:01:37;;;;;;;15.98;6.28;;;29.30;53.80;;;;;;5024998;28;25072;-63
2022/06/18 12:04:28;;;;;;;15.82;5.60;;;28.60;54.40;;;;;;5051726;28;25083;-64
2022/06/18 12:07:10;;;;;;;18.75;5.88;;;28.00;67.60;;;;;;5039063;28;25056;-63
2022/06/18 12:09:37;;;;;;;18.33;5.90;;;27.90;66.40;;;;;;5055859;28;25106;-62
2022/06/18 12:12:02;;;;;;;14.15;5.28;;;28.20;69.50;;;;;;5052094;28;25080;-64
2022/06/18 12:14:33;;;;;;;9.68;5.40;;;28.50;69.60;;;;;;5058156;28;25117;-63
2022/06/18 12:17:22;;;;;;;16.83;5.70;;;28.70;62.60;;;;;;5057227;28;25099;-65
2022/06/18 12:20:13;;;;;;;13.48;5.55;;;28.90;63.10;;;;;;5055014;28;25133;-65
2022/06/18 12:22:46;;;;;;;14.90;5.80;;;28.70;62.20;;;;;;5054042;28;25073;-65
2022/06/18 12:25:36;;;;;;;20.90;5.95;;;29.20;61.70;;;;;;5036563;28;25094;-63
2022/06/18 12:28:07;;;;;;;14.52;6.90;;;28.80;63.60;;;;;;5059647;28;25080;-63
2022/06/18 12:30:57;;;;;;;19.45;6.75;;;28.90;63.70;;;;;;5061836;28;25090;-64
2022/06/18 12:33:39;;;;;;;15.30;5.55;;;28.80;65.40;;;;;;5055086;28;25176;-63
2022/06/18 12:36:12;;;;;;;13.32;6.55;;;28.70;66.80;;;;;;5054701;28;25175;-61
2022/06/18 12:39:12;;;;;;;17.90;5.93;;;29.00;64.70;;;;;;5062370;28;25148;-63
2022/06/18 12:41:43;;;;;;;16.88;6.00;;;28.80;65.50;;;;;;5062867;28;25055;-63
2022/06/18 12:44:46;;;;;;;19.08;6.57;;;28.70;66.30;;;;;;5061095;28;25186;-64
2022/06/18 12:47:56;;;;;;;19.35;6.82;;;29.00;60.20;;;;;;5073631;28;25069;-64
2022/06/18 12:50:30;;;;;;;19.50;6.15;;;28.70;63.40;;;;;;5068704;28;25134;-63
2022/06/18 12:53:02;;;;;;;13.02;6.05;;;28.30;72.50;;;;;;5049047;28;25100;-62
2022/06/18 12:56:10;;;;;;;19.70;6.28;;;28.70;65.30;;;;;;5069988;28;25067;-62
2022/06/18 12:58:43;;;;;;;17.27;5.70;;;28.20;66.20;;;;;;5053819;28;25061;-62
2022/06/18 13:01:24;;;;;;;16.92;5.70;;;28.20;71.20;;;;;;5059995;28;25100;-61
2022/06/18 13:04:07;;;;;;;12.40;5.57;;;28.60;66.10;;;;;;5064109;28;25053;-62
2022/06/18 13:06:33;;;;;;;16.38;4.80;;;28.80;63.10;;;;;;5060318;28;25060;-62
2022/06/18 13:09:17;;;;;;;16.80;5.22;;;28.90;64.50;;;;;;5044771;28;25050;-63
2022/06/18 13:12:17;;;;;;;11.80;5.35;;;28.90;60.50;;;;;;5056825;28;25085;-64
2022/06/18 13:14:51;;;;;;;13.55;5.18;;;28.20;67.40;;;;;;5056359;28;25070;-63
2022/06/18 13:17:23;;;;;;;14.05;5.60;;;27.90;70.40;;;;;;5078673;28;25071;-63